Time;durP1;ratioP1;P1;durP2;ratioP2;P2;SDS_P1;SDS_P2;PMS_P1;PMS_P2;Temp;Humidity;BMP_temperature;BMP_pressure;BME280_temperature;BME280_humidity;BME280_pressure;Samples;Min_cycle;Max_cycle;Signal;HPM_P1;HPM_P2
2024/03/23 00:01:19;;;;;;;100.70;61.37;;;;;;;4.16;83.66;100543.17;123425;1099;104723;-75
2024/03/23 00:03:50;;;;;;;104.97;60.83;;;;;;;4.15;84.19;100534.49;123389;1099;104342;-75
2024/03/23 00:06:22;;;;;;;107.93;60.90;;;;;;;4.14;84.24;100536.20;123437;1098;104346;-75
2024/03/23 00:08:53;;;;;;;108.37;61.67;;;;;;;4.15;83.58;100531.89;123388;1099;104334;-75
2024/03/23 00:11:25;;;;;;;107.50;61.35;;;;;;;4.12;83.86;100527.40;123405;1099;104406;-76
2024/03/23 00:13:57;;;;;;;96.97;59.47;;;;;;;4.12;84.09;100522.20;123377;1099;104441;-75
2024/03/23 00:16:28;;;;;;;104.53;62.27;;;;;;;4.16;84.37;100520.72;123429;1099;104309;-75
2024/03/23 00:19:00;;;;;;;105.90;62.37;;;;;;;4.17;84.71;100522.48;123495;1099;104193;-75
2024/03/23 00:21:31;;;;;;;112.57;63.67;;;;;;;4.18;83.95;100518.22;123472;1099;104373;-75
2024/03/23 00:24:03;;;;;;;115.93;63.60;;;;;;;4.14;83.83;100518.02;123649;1099;104399;-75
2024/03/23 00:26:34;;;;;;;114.57;63.17;;;;;;;4.11;83.88;100512.64;123431;1098;104245;-74
2024/03/23 00:29:06;;;;;;;108.97;61.30;;;;;;;4.07;84.02;100512.36;123469;1099;104415;-74
2024/03/23 00:31:37;;;;;;;107.50;62.30;;;;;;;4.08;84.68;100514.13;123472;1099;104350;-74
2024/03/23 00:34:09;;;;;;;103.53;58.50;;;;;;;4.04;84.74;100509.56;123417;1099;104277;-74
2024/03/23 00:36:40;;;;;;;100.03;57.83;;;;;;;3.99;84.70;100516.15;123392;1099;104245;-75
2024/03/23 00:39:12;;;;;;;100.80;58.33;;;;;;;3.99;84.64;100516.15;123437;1099;104351;-74
2024/03/23 00:41:43;;;;;;;107.80;59.15;;;;;;;3.98;84.82;100509.19;123482;1099;104268;-75
2024/03/23 00:44:17;;;;;;;101.90;57.60;;;;;;;3.92;84.18;100513.17;123409;1099;104268;-75
2024/03/23 00:46:49;;;;;;;100.87;57.80;;;;;;;3.87;83.99;100506.80;123432;1099;104308;-74
2024/03/23 00:49:20;;;;;;;100.55;58.30;;;;;;;3.87;84.23;100524.09;123455;1098;104287;-75
2024/03/23 00:51:51;;;;;;;100.07;55.47;;;;;;;3.83;84.86;100509.11;123431;1098;104318;-75
2024/03/23 00:54:23;;;;;;;94.93;54.13;;;;;;;3.83;85.38;100524.69;123445;1098;104357;-75
2024/03/23 00:56:54;;;;;;;93.80;50.95;;;;;;;3.82;85.00;100517.69;123503;1098;104338;-75
2024/03/23 00:59:28;;;;;;;95.83;50.17;;;;;;;3.82;85.18;100518.61;123612;1099;104712;-74
2024/03/23 01:01:59;;;;;;;88.72;47.30;;;;;;;3.82;85.62;100518.61;123537;1099;104347;-75
2024/03/23 01:04:31;;;;;;;82.07;46.30;;;;;;;3.82;85.13;100517.69;123469;1098;104281;-75
2024/03/23 01:07:02;;;;;;;85.17;46.00;;;;;;;3.76;84.78;100519.11;123453;1098;104316;-75
2024/03/23 01:09:33;;;;;;;78.03;43.63;;;;;;;3.74;85.36;100509.42;123473;1098;104242;-75
2024/03/23 01:12:06;;;;;;;84.13;44.63;;;;;;;3.71;84.99;100515.34;123529;1099;104363;-75
2024/03/23 01:14:37;;;;;;;77.40;44.43;;;;;;;3.69;85.27;100516.91;123399;1099;104268;-73
2024/03/23 01:17:08;;;;;;;83.27;44.93;;;;;;;3.67;85.53;100513.33;123448;1099;104463;-75
2024/03/23 01:19:41;;;;;;;78.57;45.17;;;;;;;3.65;85.10;100519.25;123430;1099;104269;-74
2024/03/23 01:22:12;;;;;;;77.60;41.57;;;;;;;3.63;84.73;100518.23;123476;1099;104261;-75
2024/03/23 01:24:44;;;;;;;83.97;43.80;;;;;;;3.60;84.67;100517.25;123445;1099;104385;-75
2024/03/23 01:27:15;;;;;;;76.00;44.03;;;;;;;3.58;85.44;100507.56;123379;1099;107051;-74
2024/03/23 01:29:47;;;;;;;82.00;43.10;;;;;;;3.55;85.54;100515.14;123445;1099;104242;-74
2024/03/23 01:32:18;;;;;;;79.30;43.10;;;;;;;3.51;85.27;100507.98;123421;1098;104357;-75
2024/03/23 01:34:50;;;;;;;80.80;44.45;;;;;;;3.47;85.24;100508.58;123570;1099;104239;-74
2024/03/23 01:37:21;;;;;;;78.17;43.83;;;;;;;3.46;85.38;100511.96;123425;1099;119082;-75
2024/03/23 01:39:52;;;;;;;93.90;45.90;;;;;;;3.44;85.64;100506.67;123449;1099;104334;-75
2024/03/23 01:42:24;;;;;;;86.10;46.17;;;;;;;3.41;85.52;100503.88;123451;1099;104284;-74
2024/03/23 01:45:10;;;;;;;86.33;44.73;;;;;;;3.39;85.80;100500.30;123432;1099;104318;-74
2024/03/23 01:47:42;;;;;;;92.10;46.73;;;;;;;3.37;85.21;100502.80;123402;1099;104293;-75
2024/03/23 01:50:14;;;;;;;89.15;47.55;;;;;;;3.37;85.30;100495.02;123544;1099;104380;-76
2024/03/23 01:52:45;;;;;;;96.37;49.43;;;;;;;3.36;85.02;100497.51;123469;1099;104795;-74
2024/03/23 01:55:17;;;;;;;92.70;49.13;;;;;;;3.36;85.64;100489.73;123420;1099;104389;-74
2024/03/23 01:57:48;;;;;;;94.50;51.57;;;;;;;3.36;85.79;100495.80;123473;1099;104223;-75
2024/03/23 02:00:21;;;;;;;93.43;51.77;;;;;;;3.33;86.32;100490.42;123513;1099;104264;-75
2024/03/23 02:02:52;;;;;;;91.53;50.50;;;;;;;3.32;86.04;100491.23;123321;1099;104369;-75
2024/03/23 02:05:23;;;;;;;95.30;49.43;;;;;;;3.33;86.60;100489.53;123376;1099;104297;-75
2024/03/23 02:07:55;;;;;;;91.00;51.60;;;;;;;3.31;85.76;100489.44;123444;1099;104268;-75
2024/03/23 02:10:26;;;;;;;94.20;51.30;;;;;;;3.28;86.21;100486.64;123481;1099;104246;-75
2024/03/23 02:12:58;;;;;;;91.33;50.43;;;;;;;3.30;85.89;100478.95;123531;1096;104268;-75
2024/03/23 02:15:29;;;;;;;91.40;50.63;;;;;;;3.29;86.62;100478.07;123443;1099;104281;-74
2024/03/23 02:18:00;;;;;;;95.20;49.87;;;;;;;3.27;86.59;100473.58;123420;1099;104293;-74
2024/03/23 02:20:32;;;;;;;88.87;50.73;;;;;;;3.24;86.61;100467.41;123521;1099;104361;-74
2024/03/23 02:23:03;;;;;;;89.20;49.40;;;;;;;3.23;86.33;100462.11;123502;1099;104270;-75
2024/03/23 02:25:34;;;;;;;81.23;46.73;;;;;;;3.22;86.43;100457.72;123475;1099;104268;-75
2024/03/23 02:28:06;;;;;;;85.50;47.50;;;;;;;3.19;86.60;100461.00;123424;1099;104395;-75
2024/03/23 02:30:38;;;;;;;85.20;49.07;;;;;;;3.20;86.58;100457.62;123429;1098;104303;-74
2024/03/23 02:33:09;;;;;;;93.50;50.53;;;;;;;3.22;86.84;100461.20;123422;1099;104392;-74
2024/03/23 02:35:41;;;;;;;88.13;51.03;;;;;;;3.21;86.46;100456.83;123390;1099;104296;-74
2024/03/23 02:38:12;;;;;;;85.67;49.13;;;;;;;3.21;86.82;100453.31;123480;1099;104709;-74
2024/03/23 02:40:43;;;;;;;82.77;46.73;;;;;;;3.21;87.07;100443.86;123426;1099;104641;-74
2024/03/23 02:43:14;;;;;;;83.53;48.70;;;;;;;3.21;86.42;100449.05;123420;1099;104639;-75
2024/03/23 02:45:46;;;;;;;86.10;48.83;;;;;;;3.20;86.31;100456.73;123488;1099;104373;-75
2024/03/23 02:48:17;;;;;;;86.83;47.77;;;;;;;3.17;87.28;100460.02;123427;1099;104650;-74
2024/03/23 02:50:48;;;;;;;86.20;49.33;;;;;;;3.18;87.17;100454.04;123494;1099;104268;-75
2024/03/23 02:53:20;;;;;;;82.23;46.57;;;;;;;3.21;87.48;100453.31;123427;1099;104310;-75
2024/03/23 02:55:51;;;;;;;89.90;48.33;;;;;;;3.24;87.11;100453.52;123398;1098;104271;-75
2024/03/23 02:58:22;;;;;;;91.03;48.27;;;;;;;3.24;86.89;100441.47;123366;1098;104307;-74
2024/03/23 03:00:53;;;;;;;83.37;48.93;;;;;;;3.22;87.33;100444.75;123379;1099;104337;-74
2024/03/23 03:03:25;;;;;;;82.83;47.43;;;;;;;3.20;87.03;100444.66;123359;1099;104325;-75
2024/03/23 03:05:59;;;;;;;86.43;49.13;;;;;;;3.18;87.31;100438.48;123395;1099;104422;-76
2024/03/23 03:08:30;;;;;;;82.53;46.50;;;;;;;3.14;86.81;100433.89;123347;1099;104344;-74
2024/03/23 03:11:01;;;;;;;86.80;48.77;;;;;;;3.12;87.05;100442.38;123381;1099;104312;-75
2024/03/23 03:13:33;;;;;;;83.33;47.87;;;;;;;3.08;87.57;100432.61;123433;1099;104249;-75
2024/03/23 03:16:09;;;;;;;89.43;48.43;;;;;;;3.03;87.07;100428.00;123444;1099;104245;-74
2024/03/23 03:18:41;;;;;;;89.20;50.63;;;;;;;3.01;87.28;100428.73;123411;1098;104339;-75
2024/03/23 03:21:12;;;;;;;92.93;49.80;;;;;;;3.01;87.19;100428.73;123525;1099;104335;-75
2024/03/23 03:23:44;;;;;;;83.57;48.50;;;;;;;3.00;87.76;100426.92;123413;1099;104325;-74
2024/03/23 03:26:15;;;;;;;88.30;49.30;;;;;;;3.01;87.54;100426.13;123444;1099;104245;-75
2024/03/23 03:28:48;;;;;;;78.63;47.00;;;;;;;2.99;87.83;100419.93;123467;1099;104318;-75
2024/03/23 03:31:20;;;;;;;87.43;47.57;;;;;;;2.97;87.83;100425.02;123421;1098;104254;-75
2024/03/23 03:33:52;;;;;;;86.60;46.95;;;;;;;2.96;87.96;100423.24;123460;1099;104254;-74
2024/03/23 03:36:23;;;;;;;80.43;45.57;;;;;;;2.94;87.53;100427.41;123847;1099;104223;-75
2024/03/23 03:38:54;;;;;;;85.20;46.63;;;;;;;2.95;87.62;100425.73;123520;1099;105631;-75
2024/03/23 03:41:26;;;;;;;81.53;46.63;;;;;;;2.91;87.48;100429.80;123537;1099;104267;-75
2024/03/23 03:44:01;;;;;;;80.60;45.57;;;;;;;2.90;88.16;100425.44;123585;1099;104345;-75
2024/03/23 03:46:32;;;;;;;84.30;46.27;;;;;;;2.89;87.86;100418.45;123520;1099;104316;-75
2024/03/23 03:49:03;;;;;;;86.20;45.57;;;;;;;2.86;87.20;100423.44;123731;1099;104239;-75
2024/03/23 03:51:35;;;;;;;82.80;44.90;;;;;;;2.85;87.55;100424.22;123594;1099;104647;-75
2024/03/23 03:54:06;;;;;;;79.73;45.40;;;;;;;2.85;88.12;100422.55;123670;1099;104172;-75
2024/03/23 03:56:37;;;;;;;76.90;44.63;;;;;;;2.88;88.42;100422.75;123524;1099;104226;-75
2024/03/23 03:59:09;;;;;;;73.97;42.93;;;;;;;2.87;88.32;100413.16;123487;1098;104752;-75
2024/03/23 04:01:40;;;;;;;79.07;44.40;;;;;;;2.85;87.95;100408.67;123467;1099;104345;-75
2024/03/23 04:04:13;;;;;;;86.63;44.70;;;;;;;2.85;88.05;100409.59;123462;1099;104271;-76
2024/03/23 04:06:45;;;;;;;78.57;43.13;;;;;;;2.85;87.96;100401.81;123439;1099;104271;-73
2024/03/23 04:09:17;;;;;;;78.33;45.43;;;;;;;2.83;87.73;100400.80;123422;1099;104289;-75
2024/03/23 04:11:50;;;;;;;80.53;44.37;;;;;;;2.85;88.69;100395.70;123443;1098;104393;-75
2024/03/23 04:14:21;;;;;;;82.13;46.13;;;;;;;2.87;88.32;100396.73;123401;1098;104265;-75
2024/03/23 04:16:52;;;;;;;85.53;46.70;;;;;;;2.90;88.31;100396.92;123458;1099;104290;-77
2024/03/23 04:19:24;;;;;;;79.60;44.50;;;;;;;2.93;88.31;100396.20;123517;1099;104245;-75
2024/03/23 04:21:55;;;;;;;84.17;45.97;;;;;;;2.94;88.36;100393.71;123454;1099;104369;-74
2024/03/23 04:24:26;;;;;;;78.27;45.60;;;;;;;2.96;88.87;100397.33;123404;1099;104360;-75
2024/03/23 04:26:57;;;;;;;79.13;44.90;;;;;;;2.97;88.65;100391.31;123430;1099;104352;-76
2024/03/23 04:29:29;;;;;;;80.27;44.03;;;;;;;2.99;88.91;100388.83;123238;1099;104277;-75
2024/03/23 04:32:01;;;;;;;79.70;43.10;;;;;;;2.99;88.69;100388.83;123444;1099;104306;-75
2024/03/23 04:34:33;;;;;;;79.47;43.67;;;;;;;3.01;88.92;100382.06;123518;1099;104306;-76
2024/03/23 04:37:04;;;;;;;80.43;44.67;;;;;;;3.04;88.42;100390.92;123410;1099;104865;-75
2024/03/23 04:39:37;;;;;;;84.67;44.50;;;;;;;3.07;88.92;100390.23;123508;1099;104268;-75
2024/03/23 04:42:09;;;;;;;76.60;42.43;;;;;;;3.10;88.83;100384.33;123561;1099;104322;-75
2024/03/23 04:44:40;;;;;;;78.70;43.40;;;;;;;3.16;89.52;100379.53;123703;1099;104347;-75
2024/03/23 04:47:12;;;;;;;75.45;41.10;;;;;;;3.22;89.10;100379.92;123509;1098;104309;-75
2024/03/23 04:49:44;;;;;;;77.67;41.47;;;;;;;3.27;89.57;100385.40;123444;1099;104341;-75
2024/03/23 04:52:15;;;;;;;73.07;40.10;;;;;;;3.33;89.78;100378.00;123533;1099;104271;-75
2024/03/23 04:54:48;;;;;;;72.60;39.70;;;;;;;3.42;89.84;100379.47;123565;1099;104803;-75
2024/03/23 04:57:19;;;;;;;70.50;39.90;;;;;;;3.49;89.94;100380.77;123501;1098;104290;-75
2024/03/23 04:59:53;;;;;;;70.87;39.10;;;;;;;3.54;89.82;100387.13;123470;1099;104401;-75
2024/03/23 05:02:25;;;;;;;76.40;40.03;;;;;;;3.59;89.14;100375.32;123592;1098;104431;-75
2024/03/23 05:04:56;;;;;;;68.13;37.13;;;;;;;3.66;89.17;100374.02;123506;1098;104361;-75
2024/03/23 05:07:28;;;;;;;64.50;37.20;;;;;;;3.72;89.62;100383.86;123432;1099;104274;-75
2024/03/23 05:09:59;;;;;;;62.53;34.93;;;;;;;3.77;89.86;100375.56;123562;1099;104344;-75
2024/03/23 05:12:31;;;;;;;67.53;36.67;;;;;;;3.85;90.15;100375.11;123538;1099;104384;-75
2024/03/23 05:15:03;;;;;;;65.70;35.33;;;;;;;3.94;90.15;100379.19;123433;1099;104325;-75
2024/03/23 05:17:36;;;;;;;61.30;32.37;;;;;;;4.04;90.18;100383.22;123470;1099;104294;-76
2024/03/23 05:20:09;;;;;;;62.77;34.97;;;;;;;4.11;90.41;100377.59;123514;1099;104348;-75
2024/03/23 05:22:41;;;;;;;57.33;33.38;;;;;;;4.22;90.08;100370.41;123638;1097;104309;-75
2024/03/23 05:25:13;;;;;;;58.30;32.47;;;;;;;4.32;90.56;100383.14;123404;1099;104322;-75
2024/03/23 05:27:44;;;;;;;58.67;31.73;;;;;;;4.42;90.59;100381.97;123551;1099;104461;-75
2024/03/23 05:30:16;;;;;;;57.67;32.33;;;;;;;4.50;89.81;100378.14;123623;1099;104329;-75
2024/03/23 05:32:47;;;;;;;58.80;32.30;;;;;;;4.59;90.43;100385.55;123615;1099;104267;-76
2024/03/23 05:35:19;;;;;;;57.03;31.63;;;;;;;4.66;90.23;100372.11;123565;1099;104273;-75
2024/03/23 05:37:50;;;;;;;56.77;30.57;;;;;;;4.74;90.28;100372.55;123509;1099;104702;-75
2024/03/23 05:40:21;;;;;;;55.80;32.37;;;;;;;4.81;90.42;100371.19;123483;1098;104723;-76
2024/03/23 05:42:53;;;;;;;57.50;32.87;;;;;;;4.90;90.60;100376.03;123532;1099;104383;-75
2024/03/23 05:45:25;;;;;;;55.97;32.40;;;;;;;4.97;90.09;100371.26;123662;1099;104360;-74
2024/03/23 05:47:56;;;;;;;63.13;32.30;;;;;;;5.07;90.76;100375.25;123512;1099;104319;-75
2024/03/23 05:50:28;;;;;;;51.13;30.23;;;;;;;5.18;90.94;100381.06;123527;1099;104294;-75
2024/03/23 05:52:59;;;;;;;54.57;30.67;;;;;;;5.28;90.79;100380.73;123436;1098;104501;-74
2024/03/23 05:55:30;;;;;;;56.40;31.07;;;;;;;5.38;90.73;100380.44;123633;1099;104306;-75
2024/03/23 05:58:02;;;;;;;57.53;31.03;;;;;;;5.50;91.08;100387.11;123460;1099;104653;-75
2024/03/23 06:00:33;;;;;;;56.97;31.07;;;;;;;5.60;90.99;100376.39;123421;1099;104269;-75
2024/03/23 06:03:04;;;;;;;50.77;29.67;;;;;;;5.70;90.74;100378.69;123426;1099;104459;-75
2024/03/23 06:05:36;;;;;;;54.63;29.50;;;;;;;5.83;90.91;100385.44;123369;1099;104405;-74
2024/03/23 06:08:09;;;;;;;56.60;29.37;;;;;;;5.92;90.25;100379.80;123447;1098;104418;-75
2024/03/23 06:10:42;;;;;;;56.80;31.57;;;;;;;6.03;90.73;100377.78;123278;1099;104695;-74
2024/03/23 06:13:13;;;;;;;53.20;29.23;;;;;;;6.15;90.99;100383.63;123791;1099;104325;-75
2024/03/23 06:15:46;;;;;;;52.75;30.00;;;;;;;6.25;90.83;100379.81;123552;1099;104349;-74
2024/03/23 06:18:17;;;;;;;56.30;29.87;;;;;;;6.34;90.81;100377.64;123487;1098;104752;-75
2024/03/23 06:20:49;;;;;;;52.10;29.30;;;;;;;6.50;91.08;100370.59;123498;1099;104737;-74
2024/03/23 06:23:20;;;;;;;54.87;29.87;;;;;;;6.64;90.47;100374.80;123459;1099;110853;-74
2024/03/23 06:25:52;;;;;;;52.83;29.10;;;;;;;6.76;90.76;100375.41;123545;1099;104223;-74
2024/03/23 06:28:23;;;;;;;49.07;28.70;;;;;;;6.91;91.01;100370.02;123465;1099;104310;-75
2024/03/23 06:30:55;;;;;;;55.90;29.43;;;;;;;7.06;91.35;100380.31;123579;1099;104274;-75
2024/03/23 06:33:26;;;;;;;60.23;29.90;;;;;;;7.20;90.63;100379.25;123475;1098;104245;-75
2024/03/23 06:35:57;;;;;;;48.97;27.97;;;;;;;7.35;91.40;100373.86;123625;1099;104303;-73
2024/03/23 06:38:29;;;;;;;48.70;27.70;;;;;;;7.49;90.89;100377.09;123481;1098;104354;-73
2024/03/23 06:41:00;;;;;;;46.97;27.10;;;;;;;7.61;90.89;100371.55;123407;1099;104329;-73
2024/03/23 06:43:32;;;;;;;46.30;26.93;;;;;;;7.74;91.10;100366.06;123406;1099;104371;-73
2024/03/23 06:46:05;;;;;;;47.00;27.50;;;;;;;7.89;90.93;100372.79;123484;1099;104313;-74
2024/03/23 06:48:36;;;;;;;45.03;25.80;;;;;;;7.99;90.54;100363.63;123537;1099;104252;-74
2024/03/23 06:51:09;;;;;;;42.43;23.33;;;;;;;8.10;90.77;100362.37;123591;1098;104256;-74
2024/03/23 06:53:40;;;;;;;34.77;17.37;;;;;;;8.27;90.76;100364.02;123653;1099;104370;-75
2024/03/23 06:56:11;;;;;;;29.80;14.83;;;;;;;8.48;91.61;100365.77;123509;1099;104307;-75
2024/03/23 06:58:43;;;;;;;31.63;14.53;;;;;;;8.66;90.83;100359.52;123579;1097;104613;-75
2024/03/23 07:01:14;;;;;;;24.50;12.43;;;;;;;8.86;91.33;100347.24;123485;1099;104277;-75
2024/03/23 07:03:45;;;;;;;24.13;12.07;;;;;;;9.05;90.47;100347.12;123461;1099;104408;-75
2024/03/23 07:06:16;;;;;;;25.30;12.23;;;;;;;9.22;90.47;100342.55;123520;1098;104377;-75
2024/03/23 07:08:48;;;;;;;23.63;11.90;;;;;;;9.38;90.06;100343.14;123484;1099;104293;-75
2024/03/23 07:11:22;;;;;;;24.73;11.33;;;;;;;9.54;89.67;100337.66;123482;1099;104350;-75
2024/03/23 07:13:55;;;;;;;22.93;11.50;;;;;;;9.69;88.10;100338.22;123440;1099;104278;-75
2024/03/23 07:16:27;;;;;;;24.20;11.35;;;;;;;9.82;87.94;100338.67;123806;1099;104229;-74
2024/03/23 07:18:59;;;;;;;25.67;11.83;;;;;;;9.88;86.69;100344.13;123260;1099;104327;-74
2024/03/23 07:21:31;;;;;;;26.27;12.90;;;;;;;9.99;87.27;100334.03;123691;1099;104446;-75
2024/03/23 07:24:02;;;;;;;26.30;12.10;;;;;;;10.13;86.15;100331.86;123713;1098;104233;-74
2024/03/23 07:26:33;;;;;;;23.60;11.77;;;;;;;10.22;84.71;100324.31;123444;1099;104236;-75
2024/03/23 07:29:05;;;;;;;23.30;12.17;;;;;;;10.30;85.43;100325.50;123512;1099;104238;-75
2024/03/23 07:31:36;;;;;;;24.50;12.30;;;;;;;10.40;85.79;100310.98;123445;1099;104387;-76
2024/03/23 07:34:08;;;;;;;24.57;12.03;;;;;;;10.54;86.05;100314.06;123507;1099;104284;-75
2024/03/23 07:36:39;;;;;;;27.20;13.23;;;;;;;10.69;86.90;100306.69;123810;1099;104364;-75
2024/03/23 07:39:11;;;;;;;26.90;11.80;;;;;;;10.82;86.97;100312.33;123644;1099;104383;-75
2024/03/23 07:41:45;;;;;;;25.53;12.67;;;;;;;10.91;86.45;100305.63;123615;1099;104296;-74
2024/03/23 07:44:16;;;;;;;24.45;11.90;;;;;;;11.04;85.15;100306.01;123633;1099;104370;-73
2024/03/23 07:46:47;;;;;;;25.30;13.00;;;;;;;11.13;84.58;100304.55;123423;1099;104277;-74
2024/03/23 07:49:19;;;;;;;25.93;13.40;;;;;;;11.25;85.02;100305.75;123518;1099;104303;-74
2024/03/23 07:51:50;;;;;;;24.80;13.07;;;;;;;11.37;84.50;100299.98;123520;1099;104265;-75
2024/03/23 07:54:21;;;;;;;24.13;11.30;;;;;;;11.46;81.69;100297.63;123498;1099;105536;-75
2024/03/23 07:56:52;;;;;;;24.77;12.90;;;;;;;11.53;82.95;100303.94;123268;1099;104325;-75
2024/03/23 07:59:23;;;;;;;24.23;12.60;;;;;;;11.61;81.84;100302.41;123486;1099;104341;-74
2024/03/23 08:01:55;;;;;;;25.77;13.67;;;;;;;11.65;82.12;100297.28;123547;1099;104246;-75
2024/03/23 08:04:26;;;;;;;22.97;11.70;;;;;;;11.73;81.87;100294.87;123530;1099;104663;-74
2024/03/23 08:06:57;;;;;;;25.03;13.10;;;;;;;11.76;81.25;100289.70;123405;1099;104281;-75
2024/03/23 08:09:28;;;;;;;25.33;13.17;;;;;;;11.87;80.44;100295.25;123498;1099;104314;-74
2024/03/23 08:11:59;;;;;;;24.57;12.53;;;;;;;11.97;81.06;100294.69;123403;1098;104217;-74
2024/03/23 08:14:31;;;;;;;26.80;13.40;;;;;;;12.04;79.99;100283.50;123477;1099;104265;-75
2024/03/23 08:17:02;;;;;;;24.00;12.27;;;;;;;12.16;81.06;100285.53;123464;1098;104354;-74
2024/03/23 08:19:33;;;;;;;24.30;12.80;;;;;;;12.22;79.20;100276.92;123489;1098;104293;-75
2024/03/23 08:22:04;;;;;;;22.27;11.27;;;;;;;12.31;80.58;100278.88;123498;1099;104267;-74
2024/03/23 08:24:36;;;;;;;23.37;12.33;;;;;;;12.36;79.79;100267.63;123404;1099;104386;-74
2024/03/23 08:27:08;;;;;;;23.00;11.83;;;;;;;12.40;79.99;100271.22;123457;1099;104290;-74
2024/03/23 08:29:39;;;;;;;23.53;11.80;;;;;;;12.44;79.47;100265.19;123200;1099;104836;-74
2024/03/23 08:32:12;;;;;;;22.60;11.70;;;;;;;12.55;80.13;100265.45;123491;1099;104313;-75
2024/03/23 08:34:43;;;;;;;25.67;11.73;;;;;;;12.63;80.38;100257.73;123497;1099;104315;-74
2024/03/23 08:37:14;;;;;;;23.70;11.63;;;;;;;12.68;79.93;100254.33;123505;1099;104368;-74
2024/03/23 08:39:46;;;;;;;24.20;11.63;;;;;;;12.73;78.65;100247.45;123481;1099;104272;-75
2024/03/23 08:42:17;;;;;;;21.53;11.20;;;;;;;12.82;80.12;100252.02;123428;1099;104271;-74
2024/03/23 08:44:51;;;;;;;21.47;10.87;;;;;;;12.93;79.79;100253.17;123426;1099;104268;-74
2024/03/23 08:47:22;;;;;;;23.80;12.00;;;;;;;12.94;78.46;100254.05;123440;1099;104267;-74
2024/03/23 08:49:53;;;;;;;23.73;11.83;;;;;;;13.02;78.57;100252.46;123392;1099;104249;-75
2024/03/23 08:52:27;;;;;;;24.87;11.63;;;;;;;13.10;78.01;100244.73;123450;1099;104248;-75
2024/03/23 08:54:58;;;;;;;23.75;11.43;;;;;;;13.15;78.92;100251.00;123454;1099;104702;-73
2024/03/23 08:57:29;;;;;;;23.10;11.30;;;;;;;13.24;78.84;100245.89;123421;1099;104347;-73
2024/03/23 09:00:03;;;;;;;22.48;10.85;;;;;;;13.31;78.66;100232.00;123430;1099;104350;-74
2024/03/23 09:02:34;;;;;;;24.97;11.60;;;;;;;13.38;78.92;100238.31;123418;1099;104472;-74
2024/03/23 09:05:06;;;;;;;23.40;11.33;;;;;;;13.42;76.63;100234.89;123154;1099;104332;-73
2024/03/23 09:07:37;;;;;;;24.40;11.37;;;;;;;13.40;77.55;100225.16;123102;1099;104360;-74
2024/03/23 09:10:10;;;;;;;20.00;10.57;;;;;;;13.50;76.60;100227.13;123561;1099;104265;-75
2024/03/23 09:12:41;;;;;;;19.57;10.60;;;;;;;13.62;77.14;100222.09;123435;1099;104374;-74
2024/03/23 09:15:12;;;;;;;20.13;10.73;;;;;;;13.73;76.32;100224.94;123384;1099;104261;-74
2024/03/23 09:17:44;;;;;;;21.23;10.37;;;;;;;13.86;75.81;100214.61;123587;1099;104342;-75
2024/03/23 09:20:15;;;;;;;21.60;10.20;;;;;;;13.93;74.67;100211.20;123499;1099;104370;-75
2024/03/23 09:22:48;;;;;;;21.40;9.90;;;;;;;14.02;74.51;100206.99;123628;1099;104267;-73
2024/03/23 09:25:20;;;;;;;22.23;10.57;;;;;;;14.07;73.67;100203.52;123517;1099;104727;-73
2024/03/23 09:27:51;;;;;;;20.37;10.67;;;;;;;14.11;75.21;100197.45;123422;1098;104338;-73
2024/03/23 09:30:22;;;;;;;19.93;9.67;;;;;;;14.12;73.20;100193.95;123403;1098;104265;-74
2024/03/23 09:32:53;;;;;;;18.13;8.93;;;;;;;14.14;74.27;100187.82;123562;1099;104236;-74
2024/03/23 09:35:24;;;;;;;18.60;9.23;;;;;;;14.14;72.87;100181.66;123509;1099;104242;-75
2024/03/23 09:37:57;;;;;;;19.47;9.37;;;;;;;14.13;73.28;100188.70;123709;1098;104258;-73
2024/03/23 09:40:28;;;;;;;18.87;8.70;;;;;;;14.18;73.16;100178.23;123238;1099;104457;-74
2024/03/23 09:43:00;;;;;;;21.83;10.37;;;;;;;14.31;74.40;100177.53;123658;1098;104746;-73
2024/03/23 09:45:31;;;;;;;18.47;8.90;;;;;;;14.42;72.68;100171.55;123601;1099;104191;-75
2024/03/23 09:48:02;;;;;;;18.17;9.40;;;;;;;14.42;70.98;100171.55;123501;1099;104264;-74
2024/03/23 09:50:37;;;;;;;20.25;9.15;;;;;;;14.46;70.23;100154.86;123536;1099;104214;-75
2024/03/23 09:53:10;;;;;;;18.20;8.90;;;;;;;14.52;71.52;100154.95;123421;1099;104440;-74
2024/03/23 09:55:43;;;;;;;19.17;9.77;;;;;;;14.53;70.10;100148.81;123578;1099;104191;-74
2024/03/23 09:58:18;;;;;;;20.07;8.90;;;;;;;14.54;69.73;100145.32;123463;1098;104309;-74
2024/03/23 10:00:49;;;;;;;18.17;8.73;;;;;;;14.54;67.37;100140.04;124446;1099;104223;-73
2024/03/23 10:03:20;;;;;;;18.07;8.53;;;;;;;14.54;68.33;100138.27;123414;1099;104335;-75
2024/03/23 10:06:03;;;;;;;17.47;7.70;;;;;;;14.63;68.72;100134.01;123401;1099;104316;-75
2024/03/23 10:08:35;;;;;;;18.37;8.17;;;;;;;14.66;68.45;100137.60;123589;1099;104398;-74
2024/03/23 10:11:17;;;;;;;16.53;8.30;;;;;;;14.66;68.67;100139.33;123488;1099;104512;-74
2024/03/23 10:13:48;;;;;;;17.13;7.87;;;;;;;14.63;66.95;100140.20;123880;1099;104242;-73
2024/03/23 10:16:27;;;;;;;17.53;7.83;;;;;;;14.66;68.53;100134.96;123598;1099;104336;-74
2024/03/23 10:18:58;;;;;;;13.73;7.07;;;;;;;14.70;66.30;100139.39;123472;1099;104344;-73
2024/03/23 10:21:29;;;;;;;13.00;6.37;;;;;;;14.79;66.33;100135.09;123482;1099;104347;-75
2024/03/23 10:24:11;;;;;;;15.07;7.30;;;;;;;14.84;66.01;100130.77;123405;1099;104289;-74
2024/03/23 10:26:42;;;;;;;17.00;7.63;;;;;;;14.90;66.83;100133.48;123436;1099;104242;-74
2024/03/23 10:29:13;;;;;;;14.17;6.93;;;;;;;14.90;66.75;100126.44;123411;1099;104328;-74
2024/03/23 10:31:47;;;;;;;17.07;7.60;;;;;;;14.94;65.88;100116.78;123452;1099;104413;-75
2024/03/23 10:34:25;;;;;;;15.80;6.92;;;;;;;15.03;66.69;100116.89;123679;1099;104246;-74
2024/03/23 10:36:58;;;;;;;16.57;7.37;;;;;;;15.10;65.88;100118.75;123435;1098;104351;-75
2024/03/23 10:39:30;;;;;;;22.37;8.20;;;;;;;15.12;66.31;100109.97;123448;1099;104316;-73
2024/03/23 10:42:05;;;;;;;19.50;7.80;;;;;;;15.07;64.73;100112.55;123657;1099;104286;-73
2024/03/23 10:44:36;;;;;;;16.50;7.73;;;;;;;15.04;63.77;100096.66;123621;1099;104265;-73
2024/03/23 10:47:08;;;;;;;16.60;7.93;;;;;;;15.05;64.77;100094.04;123446;1099;105577;-74
2024/03/23 10:49:40;;;;;;;16.20;7.63;;;;;;;15.06;65.49;100093.15;123464;1099;104715;-75
2024/03/23 10:52:12;;;;;;;16.17;7.77;;;;;;;15.10;64.77;100087.04;123533;1099;104274;-75
2024/03/23 10:54:45;;;;;;;15.90;7.80;;;;;;;15.12;64.74;100083.53;123519;1098;104350;-74
2024/03/23 10:57:21;;;;;;;19.27;7.90;;;;;;;15.12;65.01;100073.84;123817;1099;104645;-76
2024/03/23 10:59:53;;;;;;;18.27;8.67;;;;;;;15.14;63.97;100066.80;123448;1099;104242;-75
2024/03/23 11:02:28;;;;;;;17.20;8.10;;;;;;;15.18;65.34;100067.75;123512;1099;104219;-75
2024/03/23 11:04:59;;;;;;;15.50;7.53;;;;;;;15.21;65.01;100062.49;123182;1098;104444;-74
2024/03/23 11:07:34;;;;;;;16.27;7.57;;;;;;;15.25;65.34;100064.27;123509;1099;104364;-73
2024/03/23 11:10:30;;;;;;;17.77;7.90;;;;;;;15.27;64.60;100060.78;123576;1099;104249;-74
2024/03/23 11:13:24;;;;;;;14.53;7.30;;;;;;;15.35;65.01;100062.59;123372;1099;104376;-73
2024/03/23 11:15:55;;;;;;;18.85;8.28;;;;;;;15.35;63.90;100055.57;123466;1098;104383;-73
2024/03/23 11:18:26;;;;;;;15.80;7.60;;;;;;;15.38;64.17;100047.66;123423;1099;104322;-74
2024/03/23 11:20:57;;;;;;;14.20;7.10;;;;;;;15.40;64.74;100050.33;123467;1099;104331;-75